Startpagina
METAR-TAF:

METAR-TAF

Vliegvelden :

Productieplatform

P11-b, Nederland

breedte: 52-21-36N, lengte: 3-20-30E, hoogte: 24 m

Actueel weer

Dit bericht is 17 minuten geleden gemaakt, om 14:25 UTC
Wind 21 kt uit het zuidzuidwesten, variërend tussen het zuiden en het westzuidwesten
Temperatuur 18°C
Vochtigheid 83%
Druk 1017 hPa
Zicht 10 km of meer
Weinig wolken op 1100 ft
Verspreide wolken op 3000 ft

METAR: EHPG 151425Z AUTO 21021KT 180V250 9999 FEW011 SCT030 18/15 Q1017 W///H///

Tijdstip: 16:42 (14:42 UTC)


TAF: ontbreekt

Waarnemingen en weersverwachtingen van meer dan 4000 vliegvelden (METAR en TAF).

De beschikbare stations zijn de gele en rode punten op de kaart.

Ga met uw muis naar het station om de naam te zien.

Klik dan om waarnemingen en weersverwachtingen te zien.

kaart wijzigen: klik op de groene knoppen met een zwart kruis om in te zoomen, op de groene knop met een streepje om uit te zoomen of op de groene pijlen voor aangrenzende kaarten.


METAR-TAF: